Atlantic Beach, North Carolina
Current Conditions -  °F | °C
As of 11:58 AM on Saturday 25 Oct 2014 (Local Time) from KMRH Reporting Station
Clear Clear  
Wind Chill: 69°   Ceiling: Unl
Heat Index: 69°   Visibility: 10mi
Dew Point: 50°   Wind: 5mph
Humidity: 51%   Direction: 330°NNW
Pressure: 29.97"   Gusts: NA
Location:  34.7°N, 76.74°W
Report Text: KMRH 251558Z AUTO 33004KT 10SM CLR 21/10 A2997 RMK AO2 SLP150 T02060100 TSNO
Loading
Personal Weather Stations






























Interactive Weather Map
Tropical Storm Tracking
New forecast layout! Learn more

10-Day Weather Forecast

Advertisements
Track Severe Weather on mobile